sensor_id;sensor_type;location;lat;lon;timestamp;temperature;humidity
15819;DHT22;8010;53.986;12.106;2022-12-20T00:01:20;4.90;99.90
15819;DHT22;8010;53.986;12.106;2022-12-20T00:03:52;4.90;99.90
15819;DHT22;8010;53.986;12.106;2022-12-20T00:06:18;4.90;99.90
15819;DHT22;8010;53.986;12.106;2022-12-20T00:08:45;4.80;99.90
15819;DHT22;8010;53.986;12.106;2022-12-20T00:11:10;4.80;99.90
15819;DHT22;8010;53.986;12.106;2022-12-20T00:13:37;4.90;99.90
15819;DHT22;8010;53.986;12.106;2022-12-20T00:16:11;4.90;99.90
15819;DHT22;8010;53.986;12.106;2022-12-20T00:18:38;4.90;99.90
15819;DHT22;8010;53.986;12.106;2022-12-20T00:21:05;4.90;99.90
15819;DHT22;8010;53.986;12.106;2022-12-20T00:23:32;5.00;99.90
15819;DHT22;8010;53.986;12.106;2022-12-20T00:26:05;5.10;99.90
15819;DHT22;8010;53.986;12.106;2022-12-20T00:28:33;5.10;99.90
15819;DHT22;8010;53.986;12.106;2022-12-20T00:30:58;5.10;99.90
15819;DHT22;8010;53.986;12.106;2022-12-20T00:33:24;5.10;99.90
15819;DHT22;8010;53.986;12.106;2022-12-20T00:35:50;5.00;99.90
15819;DHT22;8010;53.986;12.106;2022-12-20T00:38:15;5.00;99.90
15819;DHT22;8010;53.986;12.106;2022-12-20T00:40:41;5.00;99.90
15819;DHT22;8010;53.986;12.106;2022-12-20T00:43:06;5.00;99.90
15819;DHT22;8010;53.986;12.106;2022-12-20T00:45:32;4.90;99.90
15819;DHT22;8010;53.986;12.106;2022-12-20T00:47:57;4.90;99.90
15819;DHT22;8010;53.986;12.106;2022-12-20T00:50:23;4.90;99.90
15819;DHT22;8010;53.986;12.106;2022-12-20T00:52:48;4.90;99.90
15819;DHT22;8010;53.986;12.106;2022-12-20T00:55:14;4.90;99.90
15819;DHT22;8010;53.986;12.106;2022-12-20T00:57:39;4.90;99.90
15819;DHT22;8010;53.986;12.106;2022-12-20T01:00:06;4.90;99.90
15819;DHT22;8010;53.986;12.106;2022-12-20T01:02:31;4.90;99.90
15819;DHT22;8010;53.986;12.106;2022-12-20T01:04:57;4.90;99.90
15819;DHT22;8010;53.986;12.106;2022-12-20T01:07:22;4.90;99.90
15819;DHT22;8010;53.986;12.106;2022-12-20T01:09:49;4.90;99.90
15819;DHT22;8010;53.986;12.106;2022-12-20T01:12:14;4.90;99.90
15819;DHT22;8010;53.986;12.106;2022-12-20T01:14:40;4.90;99.90
15819;DHT22;8010;53.986;12.106;2022-12-20T01:17:06;4.90;99.90
15819;DHT22;8010;53.986;12.106;2022-12-20T01:19:32;5.00;99.90
15819;DHT22;8010;53.986;12.106;2022-12-20T01:21:57;5.00;99.90
15819;DHT22;8010;53.986;12.106;2022-12-20T01:24:23;5.00;99.90
15819;DHT22;8010;53.986;12.106;2022-12-20T01:26:49;5.00;99.90
15819;DHT22;8010;53.986;12.106;2022-12-20T01:29:14;5.20;99.90
15819;DHT22;8010;53.986;12.106;2022-12-20T01:31:40;5.00;99.90
15819;DHT22;8010;53.986;12.106;2022-12-20T01:34:06;5.00;99.90
15819;DHT22;8010;53.986;12.106;2022-12-20T01:36:33;5.00;99.90
15819;DHT22;8010;53.986;12.106;2022-12-20T01:39:00;5.00;99.90
15819;DHT22;8010;53.986;12.106;2022-12-20T01:41:27;4.90;99.90
15819;DHT22;8010;53.986;12.106;2022-12-20T01:43:58;4.90;99.90
15819;DHT22;8010;53.986;12.106;2022-12-20T01:46:26;4.90;99.90
15819;DHT22;8010;53.986;12.106;2022-12-20T01:49:20;4.80;99.90
15819;DHT22;8010;53.986;12.106;2022-12-20T01:51:47;4.80;99.90
15819;DHT22;8010;53.986;12.106;2022-12-20T01:54:19;4.80;99.90
15819;DHT22;8010;53.986;12.106;2022-12-20T01:56:51;4.80;99.90
15819;DHT22;8010;53.986;12.106;2022-12-20T01:59:19;4.80;99.90
15819;DHT22;8010;53.986;12.106;2022-12-20T02:01:45;4.70;99.90
15819;DHT22;8010;53.986;12.106;2022-12-20T02:04:10;4.70;99.90
15819;DHT22;8010;53.986;12.106;2022-12-20T02:06:36;4.70;99.90
15819;DHT22;8010;53.986;12.106;2022-12-20T02:09:03;4.70;99.90
15819;DHT22;8010;53.986;12.106;2022-12-20T02:11:55;4.70;99.90
15819;DHT22;8010;53.986;12.106;2022-12-20T02:14:41;4.70;99.90
15819;DHT22;8010;53.986;12.106;2022-12-20T02:17:48;4.70;99.90
15819;DHT22;8010;53.986;12.106;2022-12-20T02:20:52;4.80;99.90
15819;DHT22;8010;53.986;12.106;2022-12-20T02:23:48;4.80;99.90
15819;DHT22;8010;53.986;12.106;2022-12-20T02:29:24;4.80;99.90
15819;DHT22;8010;53.986;12.106;2022-12-20T02:32:07;4.90;99.90
15819;DHT22;8010;53.986;12.106;2022-12-20T02:34:35;4.90;99.90
15819;DHT22;8010;53.986;12.106;2022-12-20T02:37:01;4.90;99.90
15819;DHT22;8010;53.986;12.106;2022-12-20T02:39:28;4.90;99.90
15819;DHT22;8010;53.986;12.106;2022-12-20T02:42:10;5.00;99.90
15819;DHT22;8010;53.986;12.106;2022-12-20T02:44:40;5.00;99.90
15819;DHT22;8010;53.986;12.106;2022-12-20T02:47:39;5.10;99.90
15819;DHT22;8010;53.986;12.106;2022-12-20T02:50:06;5.10;99.90
15819;DHT22;8010;53.986;12.106;2022-12-20T02:52:33;5.10;99.90
15819;DHT22;8010;53.986;12.106;2022-12-20T02:55:00;5.10;99.90
15819;DHT22;8010;53.986;12.106;2022-12-20T03:00:14;5.10;99.90
15819;DHT22;8010;53.986;12.106;2022-12-20T03:02:41;5.20;99.90
15819;DHT22;8010;53.986;12.106;2022-12-20T03:05:26;5.20;99.90
15819;DHT22;8010;53.986;12.106;2022-12-20T03:08:10;5.20;99.90
15819;DHT22;8010;53.986;12.106;2022-12-20T03:10:36;5.20;99.90
15819;DHT22;8010;53.986;12.106;2022-12-20T03:13:02;5.20;99.90
15819;DHT22;8010;53.986;12.106;2022-12-20T03:15:28;5.30;99.90
15819;DHT22;8010;53.986;12.106;2022-12-20T03:18:05;5.30;99.90
15819;DHT22;8010;53.986;12.106;2022-12-20T03:20:31;5.30;99.90
15819;DHT22;8010;53.986;12.106;2022-12-20T03:22:57;5.30;99.90
15819;DHT22;8010;53.986;12.106;2022-12-20T03:25:22;5.30;99.90
15819;DHT22;8010;53.986;12.106;2022-12-20T03:27:48;5.30;99.90
15819;DHT22;8010;53.986;12.106;2022-12-20T03:30:14;5.30;99.90
15819;DHT22;8010;53.986;12.106;2022-12-20T03:32:39;5.30;99.90
15819;DHT22;8010;53.986;12.106;2022-12-20T03:35:05;5.30;99.90
15819;DHT22;8010;53.986;12.106;2022-12-20T03:37:31;5.30;99.90
15819;DHT22;8010;53.986;12.106;2022-12-20T03:39:57;5.40;99.90
15819;DHT22;8010;53.986;12.106;2022-12-20T03:42:22;5.30;99.90
15819;DHT22;8010;53.986;12.106;2022-12-20T03:44:48;5.40;99.90
15819;DHT22;8010;53.986;12.106;2022-12-20T03:47:13;5.40;99.90
15819;DHT22;8010;53.986;12.106;2022-12-20T03:49:39;5.50;99.90
15819;DHT22;8010;53.986;12.106;2022-12-20T03:52:05;5.50;99.90
15819;DHT22;8010;53.986;12.106;2022-12-20T03:54:30;5.50;99.90
15819;DHT22;8010;53.986;12.106;2022-12-20T03:56:56;5.60;99.90
15819;DHT22;8010;53.986;12.106;2022-12-20T03:59:21;5.60;99.90
15819;DHT22;8010;53.986;12.106;2022-12-20T04:01:47;5.60;99.90
15819;DHT22;8010;53.986;12.106;2022-12-20T04:04:14;5.60;99.90
15819;DHT22;8010;53.986;12.106;2022-12-20T04:06:40;5.60;99.90
15819;DHT22;8010;53.986;12.106;2022-12-20T04:09:06;5.70;99.90
15819;DHT22;8010;53.986;12.106;2022-12-20T04:11:31;5.70;99.90
15819;DHT22;8010;53.986;12.106;2022-12-20T04:13:57;5.70;99.90
15819;DHT22;8010;53.986;12.106;2022-12-20T04:16:26;5.70;99.90
15819;DHT22;8010;53.986;12.106;2022-12-20T04:18:52;5.80;99.90
15819;DHT22;8010;53.986;12.106;2022-12-20T04:21:28;5.80;99.90
15819;DHT22;8010;53.986;12.106;2022-12-20T04:23:54;5.80;99.90
15819;DHT22;8010;53.986;12.106;2022-12-20T04:26:20;5.80;99.90
15819;DHT22;8010;53.986;12.106;2022-12-20T04:28:45;5.80;99.90
15819;DHT22;8010;53.986;12.106;2022-12-20T04:31:11;5.80;99.90
15819;DHT22;8010;53.986;12.106;2022-12-20T04:33:37;5.80;99.90
15819;DHT22;8010;53.986;12.106;2022-12-20T04:36:03;5.80;99.90
15819;DHT22;8010;53.986;12.106;2022-12-20T04:38:29;5.80;99.90
15819;DHT22;8010;53.986;12.106;2022-12-20T04:40:55;5.80;99.90
15819;DHT22;8010;53.986;12.106;2022-12-20T04:43:22;5.80;99.90
15819;DHT22;8010;53.986;12.106;2022-12-20T04:45:49;5.80;99.90
15819;DHT22;8010;53.986;12.106;2022-12-20T04:48:16;5.90;99.90
15819;DHT22;8010;53.986;12.106;2022-12-20T04:50:42;5.90;99.90
15819;DHT22;8010;53.986;12.106;2022-12-20T04:53:10;5.90;99.90
15819;DHT22;8010;53.986;12.106;2022-12-20T04:55:54;5.90;99.90
15819;DHT22;8010;53.986;12.106;2022-12-20T04:58:20;5.90;99.90
15819;DHT22;8010;53.986;12.106;2022-12-20T05:00:46;5.90;99.90
15819;DHT22;8010;53.986;12.106;2022-12-20T05:03:12;6.00;99.90
15819;DHT22;8010;53.986;12.106;2022-12-20T05:05:37;6.00;99.90
15819;DHT22;8010;53.986;12.106;2022-12-20T05:08:03;6.00;99.90
15819;DHT22;8010;53.986;12.106;2022-12-20T05:10:28;6.10;99.90
15819;DHT22;8010;53.986;12.106;2022-12-20T05:12:54;6.10;99.90
15819;DHT22;8010;53.986;12.106;2022-12-20T05:15:20;6.10;99.90
15819;DHT22;8010;53.986;12.106;2022-12-20T05:17:45;6.10;99.90
15819;DHT22;8010;53.986;12.106;2022-12-20T05:20:11;6.10;99.90
15819;DHT22;8010;53.986;12.106;2022-12-20T05:22:37;6.10;99.90
15819;DHT22;8010;53.986;12.106;2022-12-20T05:25:21;6.20;99.90
15819;DHT22;8010;53.986;12.106;2022-12-20T05:28:05;6.20;99.90
15819;DHT22;8010;53.986;12.106;2022-12-20T05:30:31;6.20;99.90
15819;DHT22;8010;53.986;12.106;2022-12-20T05:32:56;6.20;99.90
15819;DHT22;8010;53.986;12.106;2022-12-20T05:35:22;6.20;99.90
15819;DHT22;8010;53.986;12.106;2022-12-20T05:37:47;6.20;99.90
15819;DHT22;8010;53.986;12.106;2022-12-20T05:40:13;6.20;99.90
15819;DHT22;8010;53.986;12.106;2022-12-20T05:42:38;6.10;99.90
15819;DHT22;8010;53.986;12.106;2022-12-20T05:45:05;6.20;99.90
15819;DHT22;8010;53.986;12.106;2022-12-20T05:47:31;6.20;99.90
15819;DHT22;8010;53.986;12.106;2022-12-20T05:50:00;6.20;99.90
15819;DHT22;8010;53.986;12.106;2022-12-20T05:52:26;6.20;99.90
15819;DHT22;8010;53.986;12.106;2022-12-20T05:54:51;6.30;99.90
15819;DHT22;8010;53.986;12.106;2022-12-20T05:57:17;6.30;99.90
15819;DHT22;8010;53.986;12.106;2022-12-20T05:59:43;6.30;99.90
15819;DHT22;8010;53.986;12.106;2022-12-20T06:02:09;6.30;99.90
15819;DHT22;8010;53.986;12.106;2022-12-20T06:04:36;7.50;99.90
15819;DHT22;8010;53.986;12.106;2022-12-20T06:07:03;6.30;99.90
15819;DHT22;8010;53.986;12.106;2022-12-20T06:09:29;7.60;99.90
15819;DHT22;8010;53.986;12.106;2022-12-20T06:11:55;7.30;99.90
15819;DHT22;8010;53.986;12.106;2022-12-20T06:14:21;6.40;99.90
15819;DHT22;8010;53.986;12.106;2022-12-20T06:16:46;6.40;99.90
15819;DHT22;8010;53.986;12.106;2022-12-20T06:19:12;6.40;99.90
15819;DHT22;8010;53.986;12.106;2022-12-20T06:21:38;6.40;99.90
15819;DHT22;8010;53.986;12.106;2022-12-20T06:24:04;6.40;99.90
15819;DHT22;8010;53.986;12.106;2022-12-20T06:26:30;6.40;99.90
15819;DHT22;8010;53.986;12.106;2022-12-20T06:29:03;6.50;99.90
15819;DHT22;8010;53.986;12.106;2022-12-20T06:31:32;6.50;99.90
15819;DHT22;8010;53.986;12.106;2022-12-20T06:33:57;6.40;99.90
15819;DHT22;8010;53.986;12.106;2022-12-20T06:36:23;6.40;99.90
15819;DHT22;8010;53.986;12.106;2022-12-20T06:38:49;6.40;99.90
15819;DHT22;8010;53.986;12.106;2022-12-20T06:41:15;6.40;99.90
15819;DHT22;8010;53.986;12.106;2022-12-20T06:43:40;6.40;99.90
15819;DHT22;8010;53.986;12.106;2022-12-20T06:46:06;6.50;99.90
15819;DHT22;8010;53.986;12.106;2022-12-20T06:48:31;6.50;99.90
15819;DHT22;8010;53.986;12.106;2022-12-20T06:50:57;6.50;99.90
15819;DHT22;8010;53.986;12.106;2022-12-20T06:53:22;6.50;99.90
15819;DHT22;8010;53.986;12.106;2022-12-20T06:55:48;6.50;99.90
15819;DHT22;8010;53.986;12.106;2022-12-20T06:58:15;6.40;99.90
15819;DHT22;8010;53.986;12.106;2022-12-20T07:00:40;6.40;99.90
15819;DHT22;8010;53.986;12.106;2022-12-20T07:03:06;6.40;99.90
15819;DHT22;8010;53.986;12.106;2022-12-20T07:05:32;6.40;99.90
15819;DHT22;8010;53.986;12.106;2022-12-20T07:07:57;6.40;99.90
15819;DHT22;8010;53.986;12.106;2022-12-20T07:10:23;6.40;99.90
15819;DHT22;8010;53.986;12.106;2022-12-20T07:12:48;6.40;99.90
15819;DHT22;8010;53.986;12.106;2022-12-20T07:15:14;6.40;99.90
15819;DHT22;8010;53.986;12.106;2022-12-20T07:17:40;6.40;99.90
15819;DHT22;8010;53.986;12.106;2022-12-20T07:20:07;6.40;99.90
15819;DHT22;8010;53.986;12.106;2022-12-20T07:22:33;6.40;99.90
15819;DHT22;8010;53.986;12.106;2022-12-20T07:24:59;6.40;99.90
15819;DHT22;8010;53.986;12.106;2022-12-20T07:27:24;6.40;99.90
15819;DHT22;8010;53.986;12.106;2022-12-20T07:29:50;6.40;99.90
15819;DHT22;8010;53.986;12.106;2022-12-20T07:32:16;6.40;99.90
15819;DHT22;8010;53.986;12.106;2022-12-20T07:34:41;6.40;99.90
15819;DHT22;8010;53.986;12.106;2022-12-20T07:37:07;6.40;99.90
15819;DHT22;8010;53.986;12.106;2022-12-20T07:39:33;6.40;99.90
15819;DHT22;8010;53.986;12.106;2022-12-20T07:41:58;6.40;99.90
15819;DHT22;8010;53.986;12.106;2022-12-20T07:44:24;6.40;99.90
15819;DHT22;8010;53.986;12.106;2022-12-20T07:46:50;6.40;99.90
15819;DHT22;8010;53.986;12.106;2022-12-20T07:49:15;6.50;99.90
15819;DHT22;8010;53.986;12.106;2022-12-20T07:51:44;6.50;99.90
15819;DHT22;8010;53.986;12.106;2022-12-20T07:54:16;6.50;99.90
15819;DHT22;8010;53.986;12.106;2022-12-20T07:56:46;6.50;99.90
15819;DHT22;8010;53.986;12.106;2022-12-20T07:59:13;6.50;99.90
15819;DHT22;8010;53.986;12.106;2022-12-20T08:01:41;6.50;99.90
15819;DHT22;8010;53.986;12.106;2022-12-20T08:04:12;6.50;99.90
15819;DHT22;8010;53.986;12.106;2022-12-20T08:06:39;6.60;99.90
15819;DHT22;8010;53.986;12.106;2022-12-20T08:09:06;6.80;99.90
15819;DHT22;8010;53.986;12.106;2022-12-20T08:11:35;6.60;99.90
15819;DHT22;8010;53.986;12.106;2022-12-20T08:14:03;6.60;99.90
15819;DHT22;8010;53.986;12.106;2022-12-20T08:16:29;6.70;99.90
15819;DHT22;8010;53.986;12.106;2022-12-20T08:18:55;7.30;99.90
15819;DHT22;8010;53.986;12.106;2022-12-20T08:21:21;6.70;99.90
15819;DHT22;8010;53.986;12.106;2022-12-20T08:23:47;6.70;99.90
15819;DHT22;8010;53.986;12.106;2022-12-20T08:26:12;6.70;99.90
15819;DHT22;8010;53.986;12.106;2022-12-20T08:28:38;6.70;99.90
15819;DHT22;8010;53.986;12.106;2022-12-20T08:31:05;6.70;99.90
15819;DHT22;8010;53.986;12.106;2022-12-20T08:33:35;6.70;99.90
15819;DHT22;8010;53.986;12.106;2022-12-20T08:36:04;6.80;99.90
15819;DHT22;8010;53.986;12.106;2022-12-20T08:38:30;6.10;99.90
15819;DHT22;8010;53.986;12.106;2022-12-20T08:41:07;6.80;99.90
15819;DHT22;8010;53.986;12.106;2022-12-20T08:43:33;6.80;99.90
15819;DHT22;8010;53.986;12.106;2022-12-20T08:45:59;6.80;99.90
15819;DHT22;8010;53.986;12.106;2022-12-20T08:48:25;6.80;99.90
15819;DHT22;8010;53.986;12.106;2022-12-20T08:50:59;6.90;99.90
15819;DHT22;8010;53.986;12.106;2022-12-20T08:53:25;6.90;99.90
15819;DHT22;8010;53.986;12.106;2022-12-20T08:55:51;6.90;99.90
15819;DHT22;8010;53.986;12.106;2022-12-20T08:58:17;7.00;99.90
15819;DHT22;8010;53.986;12.106;2022-12-20T09:00:43;7.00;99.90
15819;DHT22;8010;53.986;12.106;2022-12-20T09:03:09;7.00;99.90
15819;DHT22;8010;53.986;12.106;2022-12-20T09:05:36;7.00;99.90
15819;DHT22;8010;53.986;12.106;2022-12-20T09:08:07;7.10;99.90
15819;DHT22;8010;53.986;12.106;2022-12-20T09:10:32;7.10;99.90
15819;DHT22;8010;53.986;12.106;2022-12-20T09:12:58;7.00;99.90
15819;DHT22;8010;53.986;12.106;2022-12-20T09:15:23;7.00;99.90
15819;DHT22;8010;53.986;12.106;2022-12-20T09:17:51;7.10;99.90
15819;DHT22;8010;53.986;12.106;2022-12-20T09:20:17;7.10;99.90
15819;DHT22;8010;53.986;12.106;2022-12-20T09:22:43;7.10;99.90
15819;DHT22;8010;53.986;12.106;2022-12-20T09:25:08;7.20;99.90
15819;DHT22;8010;53.986;12.106;2022-12-20T09:27:34;7.20;99.90
15819;DHT22;8010;53.986;12.106;2022-12-20T09:30:00;7.20;99.90
15819;DHT22;8010;53.986;12.106;2022-12-20T09:32:25;7.20;99.90
15819;DHT22;8010;53.986;12.106;2022-12-20T09:34:51;7.30;99.90
15819;DHT22;8010;53.986;12.106;2022-12-20T09:37:16;7.30;99.90
15819;DHT22;8010;53.986;12.106;2022-12-20T09:39:42;7.40;99.90
15819;DHT22;8010;53.986;12.106;2022-12-20T09:42:08;7.40;99.90
15819;DHT22;8010;53.986;12.106;2022-12-20T09:44:37;7.40;99.90
15819;DHT22;8010;53.986;12.106;2022-12-20T09:47:14;7.50;99.90
15819;DHT22;8010;53.986;12.106;2022-12-20T09:49:43;7.50;99.90
15819;DHT22;8010;53.986;12.106;2022-12-20T09:55:06;7.40;99.90
15819;DHT22;8010;53.986;12.106;2022-12-20T10:00:14;8.30;99.90
15819;DHT22;8010;53.986;12.106;2022-12-20T10:02:40;7.60;99.90
15819;DHT22;8010;53.986;12.106;2022-12-20T10:05:20;7.60;99.90
15819;DHT22;8010;53.986;12.106;2022-12-20T10:07:52;7.60;99.90
15819;DHT22;8010;53.986;12.106;2022-12-20T10:12:55;7.70;99.90
15819;DHT22;8010;53.986;12.106;2022-12-20T10:21:21;7.70;99.90
15819;DHT22;8010;53.986;12.106;2022-12-20T10:24:01;7.70;99.90
15819;DHT22;8010;53.986;12.106;2022-12-20T10:26:29;7.70;99.90
15819;DHT22;8010;53.986;12.106;2022-12-20T10:28:56;7.70;99.90
15819;DHT22;8010;53.986;12.106;2022-12-20T10:31:22;7.80;99.90
15819;DHT22;8010;53.986;12.106;2022-12-20T10:33:48;7.80;99.90
15819;DHT22;8010;53.986;12.106;2022-12-20T10:36:39;7.80;99.90
15819;DHT22;8010;53.986;12.106;2022-12-20T10:39:08;7.80;99.90
15819;DHT22;8010;53.986;12.106;2022-12-20T10:46:46;7.90;99.90
15819;DHT22;8010;53.986;12.106;2022-12-20T10:49:29;7.90;99.90
15819;DHT22;8010;53.986;12.106;2022-12-20T10:52:17;7.90;99.90
15819;DHT22;8010;53.986;12.106;2022-12-20T10:54:46;8.00;99.90
15819;DHT22;8010;53.986;12.106;2022-12-20T10:59:38;8.00;99.90
15819;DHT22;8010;53.986;12.106;2022-12-20T11:02:29;8.10;99.90
15819;DHT22;8010;53.986;12.106;2022-12-20T11:07:38;8.30;99.90
15819;DHT22;8010;53.986;12.106;2022-12-20T11:10:24;8.40;99.90
15819;DHT22;8010;53.986;12.106;2022-12-20T11:12:58;8.50;99.90
15819;DHT22;8010;53.986;12.106;2022-12-20T11:15:29;8.50;99.90
15819;DHT22;8010;53.986;12.106;2022-12-20T11:18:04;8.50;99.90
15819;DHT22;8010;53.986;12.106;2022-12-20T11:23:38;8.60;99.90
15819;DHT22;8010;53.986;12.106;2022-12-20T11:29:13;8.60;99.90
15819;DHT22;8010;53.986;12.106;2022-12-20T11:32:05;8.60;99.90
15819;DHT22;8010;53.986;12.106;2022-12-20T11:34:46;8.60;99.90
15819;DHT22;8010;53.986;12.106;2022-12-20T11:37:23;8.60;99.90
15819;DHT22;8010;53.986;12.106;2022-12-20T11:40:03;8.60;99.90
15819;DHT22;8010;53.986;12.106;2022-12-20T11:45:34;8.60;99.90
15819;DHT22;8010;53.986;12.106;2022-12-20T11:55:44;8.80;99.90
15819;DHT22;8010;53.986;12.106;2022-12-20T12:00:53;8.90;99.90
15819;DHT22;8010;53.986;12.106;2022-12-20T12:03:36;9.00;99.90
15819;DHT22;8010;53.986;12.106;2022-12-20T12:06:24;8.90;99.90
15819;DHT22;8010;53.986;12.106;2022-12-20T12:11:35;8.90;99.90
15819;DHT22;8010;53.986;12.106;2022-12-20T12:14:03;9.20;99.90
15819;DHT22;8010;53.986;12.106;2022-12-20T12:16:36;8.90;99.90
15819;DHT22;8010;53.986;12.106;2022-12-20T12:19:08;8.90;99.90
15819;DHT22;8010;53.986;12.106;2022-12-20T12:21:39;8.90;99.90
15819;DHT22;8010;53.986;12.106;2022-12-20T12:24:22;8.90;99.90
15819;DHT22;8010;53.986;12.106;2022-12-20T12:26:49;8.90;99.90
15819;DHT22;8010;53.986;12.106;2022-12-20T12:29:16;9.00;99.90
15819;DHT22;8010;53.986;12.106;2022-12-20T12:31:55;9.00;99.90
15819;DHT22;8010;53.986;12.106;2022-12-20T12:45:36;9.00;99.90
15819;DHT22;8010;53.986;12.106;2022-12-20T12:48:22;9.00;99.90
15819;DHT22;8010;53.986;12.106;2022-12-20T12:50:53;9.00;99.90
15819;DHT22;8010;53.986;12.106;2022-12-20T12:53:41;9.00;99.90
15819;DHT22;8010;53.986;12.106;2022-12-20T13:11:53;8.80;99.90
15819;DHT22;8010;53.986;12.106;2022-12-20T13:16:48;8.80;99.90
15819;DHT22;8010;53.986;12.106;2022-12-20T13:21:47;8.80;99.90
15819;DHT22;8010;53.986;12.106;2022-12-20T13:27:13;8.80;99.90
15819;DHT22;8010;53.986;12.106;2022-12-20T13:29:52;8.80;99.90
15819;DHT22;8010;53.986;12.106;2022-12-20T13:37:59;8.80;99.90
15819;DHT22;8010;53.986;12.106;2022-12-20T13:40:39;8.70;99.90
15819;DHT22;8010;53.986;12.106;2022-12-20T13:45:54;8.70;99.90
15819;DHT22;8010;53.986;12.106;2022-12-20T13:48:27;8.80;99.90
15819;DHT22;8010;53.986;12.106;2022-12-20T13:50:56;8.80;99.90
15819;DHT22;8010;53.986;12.106;2022-12-20T13:53:25;8.80;99.90
15819;DHT22;8010;53.986;12.106;2022-12-20T13:55:54;8.80;99.90
15819;DHT22;8010;53.986;12.106;2022-12-20T13:58:32;8.70;99.90
15819;DHT22;8010;53.986;12.106;2022-12-20T14:01:06;8.70;99.90
15819;DHT22;8010;53.986;12.106;2022-12-20T14:03:40;8.60;99.90
15819;DHT22;8010;53.986;12.106;2022-12-20T14:06:09;8.60;99.90
15819;DHT22;8010;53.986;12.106;2022-12-20T14:08:45;8.60;99.90
15819;DHT22;8010;53.986;12.106;2022-12-20T14:11:22;8.60;99.90
15819;DHT22;8010;53.986;12.106;2022-12-20T14:13:51;8.60;99.90
15819;DHT22;8010;53.986;12.106;2022-12-20T14:16:19;8.50;99.90
15819;DHT22;8010;53.986;12.106;2022-12-20T14:21:23;8.50;99.90
15819;DHT22;8010;53.986;12.106;2022-12-20T14:23:51;8.50;99.90
15819;DHT22;8010;53.986;12.106;2022-12-20T14:26:23;8.50;99.90
15819;DHT22;8010;53.986;12.106;2022-12-20T14:28:51;8.50;99.90
15819;DHT22;8010;53.986;12.106;2022-12-20T14:31:28;8.50;99.90
15819;DHT22;8010;53.986;12.106;2022-12-20T14:36:39;8.50;99.90
15819;DHT22;8010;53.986;12.106;2022-12-20T14:39:22;8.50;99.90
15819;DHT22;8010;53.986;12.106;2022-12-20T14:41:57;8.50;99.90
15819;DHT22;8010;53.986;12.106;2022-12-20T14:44:24;8.40;99.90
15819;DHT22;8010;53.986;12.106;2022-12-20T14:46:55;8.40;99.90
15819;DHT22;8010;53.986;12.106;2022-12-20T14:49:26;8.30;99.90
15819;DHT22;8010;53.986;12.106;2022-12-20T14:54:31;8.50;99.90
15819;DHT22;8010;53.986;12.106;2022-12-20T14:56:57;8.30;99.90
15819;DHT22;8010;53.986;12.106;2022-12-20T14:59:28;8.30;99.90
15819;DHT22;8010;53.986;12.106;2022-12-20T15:01:54;8.20;99.90
15819;DHT22;8010;53.986;12.106;2022-12-20T15:04:33;8.20;99.90
15819;DHT22;8010;53.986;12.106;2022-12-20T15:07:00;8.20;99.90
15819;DHT22;8010;53.986;12.106;2022-12-20T15:09:26;8.10;99.90
15819;DHT22;8010;53.986;12.106;2022-12-20T15:11:52;8.10;99.90
15819;DHT22;8010;53.986;12.106;2022-12-20T15:14:34;8.10;99.90
15819;DHT22;8010;53.986;12.106;2022-12-20T15:17:08;8.10;99.90
15819;DHT22;8010;53.986;12.106;2022-12-20T15:19:35;8.00;99.90
15819;DHT22;8010;53.986;12.106;2022-12-20T15:22:01;8.00;99.90
15819;DHT22;8010;53.986;12.106;2022-12-20T15:24:27;8.00;99.90
15819;DHT22;8010;53.986;12.106;2022-12-20T15:26:53;8.00;99.90
15819;DHT22;8010;53.986;12.106;2022-12-20T15:29:24;8.00;99.90
15819;DHT22;8010;53.986;12.106;2022-12-20T15:31:54;8.00;99.90
15819;DHT22;8010;53.986;12.106;2022-12-20T15:34:34;8.00;99.90
15819;DHT22;8010;53.986;12.106;2022-12-20T15:37:00;7.90;99.90
15819;DHT22;8010;53.986;12.106;2022-12-20T15:39:27;7.90;99.90
15819;DHT22;8010;53.986;12.106;2022-12-20T15:41:53;8.00;99.90
15819;DHT22;8010;53.986;12.106;2022-12-20T15:44:21;8.00;99.90
15819;DHT22;8010;53.986;12.106;2022-12-20T15:46:48;8.00;99.90
15819;DHT22;8010;53.986;12.106;2022-12-20T15:49:17;8.00;99.90
15819;DHT22;8010;53.986;12.106;2022-12-20T15:51:44;8.00;99.90
15819;DHT22;8010;53.986;12.106;2022-12-20T15:54:22;8.00;99.90
15819;DHT22;8010;53.986;12.106;2022-12-20T15:56:48;8.00;99.90
15819;DHT22;8010;53.986;12.106;2022-12-20T15:59:14;8.00;99.90
15819;DHT22;8010;53.986;12.106;2022-12-20T16:01:40;8.00;99.90
15819;DHT22;8010;53.986;12.106;2022-12-20T16:04:06;8.00;99.90
15819;DHT22;8010;53.986;12.106;2022-12-20T16:06:32;7.90;99.90
15819;DHT22;8010;53.986;12.106;2022-12-20T16:08:58;7.90;99.90
15819;DHT22;8010;53.986;12.106;2022-12-20T16:11:26;7.90;99.90
15819;DHT22;8010;53.986;12.106;2022-12-20T16:13:54;7.90;99.90
15819;DHT22;8010;53.986;12.106;2022-12-20T16:16:31;8.00;99.90
15819;DHT22;8010;53.986;12.106;2022-12-20T16:18:57;8.00;99.90
15819;DHT22;8010;53.986;12.106;2022-12-20T16:21:29;8.00;99.90
15819;DHT22;8010;53.986;12.106;2022-12-20T16:23:55;8.00;99.90
15819;DHT22;8010;53.986;12.106;2022-12-20T16:26:23;8.00;99.90
15819;DHT22;8010;53.986;12.106;2022-12-20T16:28:50;8.00;99.90
15819;DHT22;8010;53.986;12.106;2022-12-20T16:33:59;7.90;99.90
15819;DHT22;8010;53.986;12.106;2022-12-20T16:36:25;7.90;99.90
15819;DHT22;8010;53.986;12.106;2022-12-20T16:38:52;7.90;99.90
15819;DHT22;8010;53.986;12.106;2022-12-20T16:41:20;7.90;99.90
15819;DHT22;8010;53.986;12.106;2022-12-20T16:43:47;7.90;99.90
15819;DHT22;8010;53.986;12.106;2022-12-20T16:46:16;7.90;99.90
15819;DHT22;8010;53.986;12.106;2022-12-20T16:48:43;7.90;99.90
15819;DHT22;8010;53.986;12.106;2022-12-20T16:51:31;7.90;99.90
15819;DHT22;8010;53.986;12.106;2022-12-20T16:54:11;7.90;99.90
15819;DHT22;8010;53.986;12.106;2022-12-20T16:56:37;7.90;99.90
15819;DHT22;8010;53.986;12.106;2022-12-20T16:59:02;7.90;99.90
15819;DHT22;8010;53.986;12.106;2022-12-20T17:01:33;7.90;99.90
15819;DHT22;8010;53.986;12.106;2022-12-20T17:04:00;7.90;99.90
15819;DHT22;8010;53.986;12.106;2022-12-20T17:06:26;7.90;99.90
15819;DHT22;8010;53.986;12.106;2022-12-20T17:08:51;7.90;99.90
15819;DHT22;8010;53.986;12.106;2022-12-20T17:11:20;7.90;99.90
15819;DHT22;8010;53.986;12.106;2022-12-20T17:13:47;7.90;99.90
15819;DHT22;8010;53.986;12.106;2022-12-20T17:16:14;8.10;99.90
15819;DHT22;8010;53.986;12.106;2022-12-20T17:18:41;8.00;99.90
15819;DHT22;8010;53.986;12.106;2022-12-20T17:21:20;8.60;99.90
15819;DHT22;8010;53.986;12.106;2022-12-20T17:23:48;9.20;99.90
15819;DHT22;8010;53.986;12.106;2022-12-20T17:26:16;8.10;99.90
15819;DHT22;8010;53.986;12.106;2022-12-20T17:28:41;8.70;99.90
15819;DHT22;8010;53.986;12.106;2022-12-20T17:31:21;8.20;99.90
15819;DHT22;8010;53.986;12.106;2022-12-20T17:33:48;8.10;99.90
15819;DHT22;8010;53.986;12.106;2022-12-20T17:36:14;9.10;99.90
15819;DHT22;8010;53.986;12.106;2022-12-20T17:38:39;9.00;99.90
15819;DHT22;8010;53.986;12.106;2022-12-20T17:41:17;8.10;99.90
15819;DHT22;8010;53.986;12.106;2022-12-20T17:43:44;8.10;99.90